Segondi, Kazakhstan
Current Conditions -  °F | °C
As of 6:30 PM on Thursday 23 Oct 2014 (Local Time) from UATE Reporting Station
Clear Clear  
Wind Chill: 55°   Ceiling: Unl
Heat Index: 55°   Visibility: 6mi
Dew Point: 50°   Wind: 7mph
Humidity: 82%   Direction: 320°NW
Pressure: 30"   Gusts: NA
Location:  43.84°N, 51.02°E
Report Text: UATE 231430Z 32003MPS CAVOK 13/10 Q1016 R30/0///70 NOSIG RMKQFE760/1014
Loading
Personal Weather Stations






























Interactive Weather Map
Tropical Storm Tracking
New forecast layout! Learn more

10-Day Weather Forecast

Advertisements
Track Severe Weather on mobile